sensor_id;sensor_type;location;lat;lon;timestamp;P1;durP1;ratioP1;P2;durP2;ratioP2
62535;SDS011;63050;47.514;18.920;2023-02-28T00:00:15;7.30;;;4.30;;
62535;SDS011;63050;47.514;18.920;2023-02-28T00:05:18;8.50;;;4.90;;
62535;SDS011;63050;47.514;18.920;2023-02-28T00:10:22;8.10;;;4.70;;
62535;SDS011;63050;47.514;18.920;2023-02-28T00:15:24;9.50;;;5.10;;
62535;SDS011;63050;47.514;18.920;2023-02-28T00:20:25;6.00;;;4.50;;
62535;SDS011;63050;47.514;18.920;2023-02-28T00:25:27;9.80;;;5.50;;
62535;SDS011;63050;47.514;18.920;2023-02-28T00:30:28;9.10;;;5.30;;
62535;SDS011;63050;47.514;18.920;2023-02-28T00:35:28;9.60;;;4.50;;
62535;SDS011;63050;47.514;18.920;2023-02-28T00:40:30;12.10;;;5.30;;
62535;SDS011;63050;47.514;18.920;2023-02-28T00:45:30;9.30;;;5.10;;
62535;SDS011;63050;47.514;18.920;2023-02-28T00:50:31;7.50;;;5.00;;
62535;SDS011;63050;47.514;18.920;2023-02-28T00:55:32;9.80;;;4.70;;
62535;SDS011;63050;47.514;18.920;2023-02-28T01:00:33;8.50;;;5.20;;
62535;SDS011;63050;47.514;18.920;2023-02-28T01:05:34;7.50;;;4.30;;
62535;SDS011;63050;47.514;18.920;2023-02-28T01:10:35;8.70;;;4.50;;
62535;SDS011;63050;47.514;18.920;2023-02-28T01:15:37;7.90;;;4.50;;
62535;SDS011;63050;47.514;18.920;2023-02-28T01:20:41;7.90;;;4.30;;
62535;SDS011;63050;47.514;18.920;2023-02-28T01:25:43;9.40;;;5.40;;
62535;SDS011;63050;47.514;18.920;2023-02-28T01:30:47;8.30;;;4.90;;
62535;SDS011;63050;47.514;18.920;2023-02-28T01:35:49;7.10;;;4.10;;
62535;SDS011;63050;47.514;18.920;2023-02-28T01:40:50;8.30;;;3.80;;
62535;SDS011;63050;47.514;18.920;2023-02-28T01:45:52;8.30;;;5.40;;
62535;SDS011;63050;47.514;18.920;2023-02-28T01:50:54;7.40;;;4.10;;
62535;SDS011;63050;47.514;18.920;2023-02-28T01:55:55;8.00;;;4.30;;
62535;SDS011;63050;47.514;18.920;2023-02-28T02:00:56;6.00;;;4.60;;
62535;SDS011;63050;47.514;18.920;2023-02-28T02:05:57;8.90;;;4.70;;
62535;SDS011;63050;47.514;18.920;2023-02-28T02:10:59;8.00;;;3.90;;
62535;SDS011;63050;47.514;18.920;2023-02-28T02:16:09;6.00;;;4.30;;
62535;SDS011;63050;47.514;18.920;2023-02-28T02:22:18;9.60;;;5.50;;
62535;SDS011;63050;47.514;18.920;2023-02-28T02:32:38;6.90;;;4.70;;
62535;SDS011;63050;47.514;18.920;2023-02-28T02:38:37;8.30;;;4.30;;
62535;SDS011;63050;47.514;18.920;2023-02-28T02:43:29;7.70;;;4.20;;
62535;SDS011;63050;47.514;18.920;2023-02-28T02:48:36;6.30;;;4.10;;
62535;SDS011;63050;47.514;18.920;2023-02-28T02:53:50;7.60;;;5.10;;
62535;SDS011;63050;47.514;18.920;2023-02-28T02:58:57;6.40;;;3.80;;
62535;SDS011;63050;47.514;18.920;2023-02-28T03:04:07;6.80;;;3.90;;
62535;SDS011;63050;47.514;18.920;2023-02-28T03:09:12;8.00;;;4.10;;
62535;SDS011;63050;47.514;18.920;2023-02-28T03:19:47;8.00;;;4.60;;
62535;SDS011;63050;47.514;18.920;2023-02-28T03:25:06;5.50;;;4.20;;
62535;SDS011;63050;47.514;18.920;2023-02-28T03:30:17;8.10;;;4.60;;
62535;SDS011;63050;47.514;18.920;2023-02-28T03:35:30;6.60;;;4.00;;
62535;SDS011;63050;47.514;18.920;2023-02-28T03:40:34;7.90;;;4.10;;
62535;SDS011;63050;47.514;18.920;2023-02-28T03:45:38;8.70;;;4.10;;
62535;SDS011;63050;47.514;18.920;2023-02-28T03:50:40;7.00;;;4.20;;
62535;SDS011;63050;47.514;18.920;2023-02-28T03:55:54;7.90;;;4.70;;
62535;SDS011;63050;47.514;18.920;2023-02-28T04:06:17;7.70;;;3.90;;
62535;SDS011;63050;47.514;18.920;2023-02-28T04:11:23;8.30;;;3.90;;
62535;SDS011;63050;47.514;18.920;2023-02-28T04:16:36;6.30;;;4.20;;
62535;SDS011;63050;47.514;18.920;2023-02-28T04:21:40;8.70;;;4.10;;
62535;SDS011;63050;47.514;18.920;2023-02-28T04:26:43;8.20;;;4.00;;
62535;SDS011;63050;47.514;18.920;2023-02-28T04:31:46;5.10;;;3.30;;
62535;SDS011;63050;47.514;18.920;2023-02-28T04:36:47;6.80;;;4.80;;
62535;SDS011;63050;47.514;18.920;2023-02-28T04:41:54;7.50;;;4.10;;
62535;SDS011;63050;47.514;18.920;2023-02-28T04:46:54;7.60;;;4.20;;
62535;SDS011;63050;47.514;18.920;2023-02-28T04:51:55;7.70;;;4.70;;
62535;SDS011;63050;47.514;18.920;2023-02-28T04:56:56;10.30;;;6.00;;
62535;SDS011;63050;47.514;18.920;2023-02-28T05:01:57;9.30;;;5.60;;
62535;SDS011;63050;47.514;18.920;2023-02-28T05:06:58;8.70;;;5.20;;
62535;SDS011;63050;47.514;18.920;2023-02-28T05:11:59;8.20;;;4.10;;
62535;SDS011;63050;47.514;18.920;2023-02-28T05:17:00;7.10;;;4.00;;
62535;SDS011;63050;47.514;18.920;2023-02-28T05:22:01;6.70;;;4.20;;
62535;SDS011;63050;47.514;18.920;2023-02-28T05:27:02;6.20;;;4.00;;
62535;SDS011;63050;47.514;18.920;2023-02-28T05:32:03;7.50;;;4.20;;
62535;SDS011;63050;47.514;18.920;2023-02-28T05:37:05;6.80;;;4.40;;
62535;SDS011;63050;47.514;18.920;2023-02-28T05:42:07;7.50;;;4.50;;
62535;SDS011;63050;47.514;18.920;2023-02-28T05:47:08;8.30;;;4.40;;
62535;SDS011;63050;47.514;18.920;2023-02-28T05:52:09;7.50;;;4.60;;
62535;SDS011;63050;47.514;18.920;2023-02-28T05:57:10;7.10;;;4.40;;
62535;SDS011;63050;47.514;18.920;2023-02-28T06:02:11;7.00;;;4.20;;
62535;SDS011;63050;47.514;18.920;2023-02-28T06:07:14;8.10;;;4.40;;
62535;SDS011;63050;47.514;18.920;2023-02-28T06:12:15;7.80;;;4.40;;
62535;SDS011;63050;47.514;18.920;2023-02-28T06:17:16;6.80;;;4.50;;
62535;SDS011;63050;47.514;18.920;2023-02-28T06:22:17;6.70;;;4.10;;
62535;SDS011;63050;47.514;18.920;2023-02-28T06:27:19;8.20;;;4.70;;
62535;SDS011;63050;47.514;18.920;2023-02-28T06:32:21;9.40;;;4.20;;
62535;SDS011;63050;47.514;18.920;2023-02-28T06:37:22;7.80;;;4.40;;
62535;SDS011;63050;47.514;18.920;2023-02-28T06:42:26;9.60;;;5.30;;
62535;SDS011;63050;47.514;18.920;2023-02-28T06:47:30;10.30;;;5.60;;
62535;SDS011;63050;47.514;18.920;2023-02-28T06:52:31;7.10;;;4.80;;
62535;SDS011;63050;47.514;18.920;2023-02-28T06:57:33;7.10;;;5.60;;
62535;SDS011;63050;47.514;18.920;2023-02-28T07:02:35;8.30;;;5.10;;
62535;SDS011;63050;47.514;18.920;2023-02-28T07:07:37;7.70;;;4.70;;
62535;SDS011;63050;47.514;18.920;2023-02-28T07:12:41;8.70;;;4.40;;
62535;SDS011;63050;47.514;18.920;2023-02-28T07:17:41;7.20;;;4.10;;
62535;SDS011;63050;47.514;18.920;2023-02-28T07:22:42;10.10;;;4.70;;
62535;SDS011;63050;47.514;18.920;2023-02-28T07:27:43;8.50;;;4.20;;
62535;SDS011;63050;47.514;18.920;2023-02-28T07:32:44;7.70;;;4.50;;
62535;SDS011;63050;47.514;18.920;2023-02-28T07:37:45;7.30;;;4.30;;
62535;SDS011;63050;47.514;18.920;2023-02-28T07:42:47;7.30;;;3.90;;
62535;SDS011;63050;47.514;18.920;2023-02-28T07:47:51;8.00;;;4.10;;
62535;SDS011;63050;47.514;18.920;2023-02-28T07:52:52;7.20;;;4.00;;
62535;SDS011;63050;47.514;18.920;2023-02-28T07:57:53;5.70;;;4.40;;
62535;SDS011;63050;47.514;18.920;2023-02-28T08:02:54;7.00;;;4.00;;
62535;SDS011;63050;47.514;18.920;2023-02-28T08:07:55;5.30;;;3.70;;
62535;SDS011;63050;47.514;18.920;2023-02-28T08:12:56;6.60;;;3.60;;
62535;SDS011;63050;47.514;18.920;2023-02-28T08:17:56;6.40;;;4.20;;
62535;SDS011;63050;47.514;18.920;2023-02-28T08:22:57;6.60;;;4.00;;
62535;SDS011;63050;47.514;18.920;2023-02-28T08:27:58;8.00;;;4.30;;
62535;SDS011;63050;47.514;18.920;2023-02-28T08:32:59;5.80;;;4.00;;
62535;SDS011;63050;47.514;18.920;2023-02-28T08:38:02;7.10;;;4.10;;
62535;SDS011;63050;47.514;18.920;2023-02-28T08:43:03;8.90;;;4.40;;
62535;SDS011;63050;47.514;18.920;2023-02-28T08:48:04;6.60;;;3.90;;
62535;SDS011;63050;47.514;18.920;2023-02-28T08:53:05;6.70;;;3.90;;
62535;SDS011;63050;47.514;18.920;2023-02-28T08:58:05;7.20;;;4.40;;
62535;SDS011;63050;47.514;18.920;2023-02-28T09:03:06;8.20;;;4.80;;
62535;SDS011;63050;47.514;18.920;2023-02-28T09:08:07;7.80;;;4.00;;
62535;SDS011;63050;47.514;18.920;2023-02-28T09:13:08;6.90;;;4.20;;
62535;SDS011;63050;47.514;18.920;2023-02-28T09:18:09;6.40;;;3.90;;
62535;SDS011;63050;47.514;18.920;2023-02-28T09:23:10;6.70;;;4.60;;
62535;SDS011;63050;47.514;18.920;2023-02-28T09:28:12;7.30;;;4.10;;
62535;SDS011;63050;47.514;18.920;2023-02-28T09:33:16;6.70;;;3.90;;
62535;SDS011;63050;47.514;18.920;2023-02-28T09:38:18;7.20;;;3.90;;
62535;SDS011;63050;47.514;18.920;2023-02-28T09:43:20;6.70;;;3.90;;
62535;SDS011;63050;47.514;18.920;2023-02-28T09:48:25;8.00;;;4.50;;
62535;SDS011;63050;47.514;18.920;2023-02-28T09:53:33;6.70;;;3.80;;
62535;SDS011;63050;47.514;18.920;2023-02-28T10:04:00;9.20;;;5.20;;
62535;SDS011;63050;47.514;18.920;2023-02-28T10:09:28;6.30;;;4.10;;
62535;SDS011;63050;47.514;18.920;2023-02-28T10:14:28;6.30;;;4.00;;
62535;SDS011;63050;47.514;18.920;2023-02-28T10:19:32;7.50;;;4.70;;
62535;SDS011;63050;47.514;18.920;2023-02-28T10:24:46;6.30;;;4.00;;
62535;SDS011;63050;47.514;18.920;2023-02-28T10:29:53;6.10;;;3.40;;
62535;SDS011;63050;47.514;18.920;2023-02-28T10:45:20;7.20;;;3.20;;
62535;SDS011;63050;47.514;18.920;2023-02-28T10:50:38;6.00;;;3.70;;
62535;SDS011;63050;47.514;18.920;2023-02-28T10:55:43;6.00;;;3.60;;
62535;SDS011;63050;47.514;18.920;2023-02-28T11:00:44;4.80;;;3.10;;
62535;SDS011;63050;47.514;18.920;2023-02-28T11:05:46;5.50;;;3.60;;
62535;SDS011;63050;47.514;18.920;2023-02-28T11:10:56;8.90;;;5.00;;
62535;SDS011;63050;47.514;18.920;2023-02-28T11:15:59;7.80;;;3.90;;
62535;SDS011;63050;47.514;18.920;2023-02-28T11:21:03;4.50;;;3.70;;
62535;SDS011;63050;47.514;18.920;2023-02-28T11:26:04;4.80;;;3.70;;
62535;SDS011;63050;47.514;18.920;2023-02-28T11:36:15;5.90;;;3.90;;
62535;SDS011;63050;47.514;18.920;2023-02-28T11:46:44;6.50;;;4.20;;
62535;SDS011;63050;47.514;18.920;2023-02-28T11:57:09;7.10;;;4.10;;
62535;SDS011;63050;47.514;18.920;2023-02-28T12:02:26;6.10;;;4.20;;
62535;SDS011;63050;47.514;18.920;2023-02-28T12:07:42;5.50;;;3.50;;
62535;SDS011;63050;47.514;18.920;2023-02-28T12:12:54;5.30;;;3.30;;
62535;SDS011;63050;47.514;18.920;2023-02-28T12:28:54;4.80;;;3.80;;
62535;SDS011;63050;47.514;18.920;2023-02-28T12:34:05;6.30;;;4.60;;
62535;SDS011;63050;47.514;18.920;2023-02-28T12:44:19;5.70;;;4.60;;
62535;SDS011;63050;47.514;18.920;2023-02-28T12:49:25;5.40;;;4.30;;
62535;SDS011;63050;47.514;18.920;2023-02-28T12:54:53;7.00;;;4.40;;
62535;SDS011;63050;47.514;18.920;2023-02-28T12:59:56;6.20;;;4.60;;
62535;SDS011;63050;47.514;18.920;2023-02-28T13:05:22;5.60;;;3.70;;
62535;SDS011;63050;47.514;18.920;2023-02-28T13:10:43;6.00;;;4.40;;
62535;SDS011;63050;47.514;18.920;2023-02-28T13:21:07;6.90;;;4.70;;
62535;SDS011;63050;47.514;18.920;2023-02-28T13:26:09;9.10;;;4.80;;
62535;SDS011;63050;47.514;18.920;2023-02-28T13:31:13;7.80;;;4.80;;
62535;SDS011;63050;47.514;18.920;2023-02-28T13:46:29;5.30;;;4.20;;
62535;SDS011;63050;47.514;18.920;2023-02-28T13:51:46;6.40;;;3.90;;
62535;SDS011;63050;47.514;18.920;2023-02-28T13:57:08;5.70;;;4.10;;
62535;SDS011;63050;47.514;18.920;2023-02-28T14:07:30;6.20;;;3.90;;
62535;SDS011;63050;47.514;18.920;2023-02-28T14:12:52;8.50;;;5.40;;
62535;SDS011;63050;47.514;18.920;2023-02-28T14:17:55;10.90;;;7.20;;
62535;SDS011;63050;47.514;18.920;2023-02-28T14:23:01;7.00;;;4.60;;
62535;SDS011;63050;47.514;18.920;2023-02-28T14:39:24;6.90;;;5.20;;
62535;SDS011;63050;47.514;18.920;2023-02-28T14:44:26;6.20;;;4.50;;
62535;SDS011;63050;47.514;18.920;2023-02-28T14:49:29;6.60;;;4.50;;
62535;SDS011;63050;47.514;18.920;2023-02-28T14:54:31;7.50;;;5.00;;
62535;SDS011;63050;47.514;18.920;2023-02-28T14:59:33;8.80;;;7.70;;
62535;SDS011;63050;47.514;18.920;2023-02-28T15:04:35;9.10;;;6.20;;
62535;SDS011;63050;47.514;18.920;2023-02-28T15:09:37;9.90;;;5.00;;
62535;SDS011;63050;47.514;18.920;2023-02-28T15:14:38;9.50;;;5.00;;
62535;SDS011;63050;47.514;18.920;2023-02-28T15:19:43;6.60;;;4.70;;
62535;SDS011;63050;47.514;18.920;2023-02-28T15:24:51;6.70;;;5.00;;
62535;SDS011;63050;47.514;18.920;2023-02-28T15:29:56;7.80;;;4.90;;
62535;SDS011;63050;47.514;18.920;2023-02-28T15:40:40;8.90;;;5.70;;
62535;SDS011;63050;47.514;18.920;2023-02-28T15:51:09;7.90;;;6.20;;
62535;SDS011;63050;47.514;18.920;2023-02-28T15:56:32;10.50;;;5.90;;
62535;SDS011;63050;47.514;18.920;2023-02-28T16:01:37;9.90;;;5.60;;
62535;SDS011;63050;47.514;18.920;2023-02-28T16:11:43;7.60;;;6.10;;
62535;SDS011;63050;47.514;18.920;2023-02-28T16:16:47;10.80;;;5.90;;
62535;SDS011;63050;47.514;18.920;2023-02-28T16:21:50;11.50;;;7.40;;
62535;SDS011;63050;47.514;18.920;2023-02-28T16:26:52;7.90;;;5.80;;
62535;SDS011;63050;47.514;18.920;2023-02-28T16:31:54;20.30;;;8.90;;
62535;SDS011;63050;47.514;18.920;2023-02-28T16:36:55;8.50;;;5.80;;
62535;SDS011;63050;47.514;18.920;2023-02-28T16:41:57;15.60;;;6.50;;
62535;SDS011;63050;47.514;18.920;2023-02-28T16:47:02;13.60;;;7.80;;
62535;SDS011;63050;47.514;18.920;2023-02-28T16:52:04;20.40;;;14.60;;
62535;SDS011;63050;47.514;18.920;2023-02-28T16:57:07;14.20;;;8.10;;
62535;SDS011;63050;47.514;18.920;2023-02-28T17:02:20;18.70;;;10.70;;
62535;SDS011;63050;47.514;18.920;2023-02-28T17:07:21;9.20;;;7.20;;
62535;SDS011;63050;47.514;18.920;2023-02-28T17:12:22;17.00;;;11.60;;
62535;SDS011;63050;47.514;18.920;2023-02-28T17:17:23;16.20;;;10.60;;
62535;SDS011;63050;47.514;18.920;2023-02-28T17:22:24;16.60;;;10.30;;
62535;SDS011;63050;47.514;18.920;2023-02-28T17:27:26;14.00;;;8.80;;
62535;SDS011;63050;47.514;18.920;2023-02-28T17:32:27;14.90;;;9.60;;
62535;SDS011;63050;47.514;18.920;2023-02-28T17:37:28;13.20;;;10.60;;
62535;SDS011;63050;47.514;18.920;2023-02-28T17:42:31;11.30;;;8.90;;
62535;SDS011;63050;47.514;18.920;2023-02-28T17:47:32;12.40;;;7.50;;
62535;SDS011;63050;47.514;18.920;2023-02-28T17:52:33;11.40;;;7.40;;
62535;SDS011;63050;47.514;18.920;2023-02-28T17:57:37;11.90;;;8.60;;
62535;SDS011;63050;47.514;18.920;2023-02-28T18:02:38;23.60;;;17.30;;
62535;SDS011;63050;47.514;18.920;2023-02-28T18:07:41;12.70;;;8.60;;
62535;SDS011;63050;47.514;18.920;2023-02-28T18:12:42;14.80;;;8.50;;
62535;SDS011;63050;47.514;18.920;2023-02-28T18:17:43;11.50;;;8.70;;
62535;SDS011;63050;47.514;18.920;2023-02-28T18:22:45;14.80;;;9.70;;
62535;SDS011;63050;47.514;18.920;2023-02-28T18:27:47;12.80;;;8.70;;
62535;SDS011;63050;47.514;18.920;2023-02-28T18:32:58;12.90;;;8.50;;
62535;SDS011;63050;47.514;18.920;2023-02-28T18:38:01;12.60;;;8.90;;
62535;SDS011;63050;47.514;18.920;2023-02-28T18:43:10;10.80;;;8.00;;
62535;SDS011;63050;47.514;18.920;2023-02-28T18:48:11;10.50;;;7.70;;
62535;SDS011;63050;47.514;18.920;2023-02-28T18:53:15;10.10;;;7.60;;
62535;SDS011;63050;47.514;18.920;2023-02-28T19:03:22;13.90;;;8.30;;
62535;SDS011;63050;47.514;18.920;2023-02-28T19:08:24;24.10;;;16.60;;
62535;SDS011;63050;47.514;18.920;2023-02-28T19:13:26;16.70;;;11.50;;
62535;SDS011;63050;47.514;18.920;2023-02-28T19:18:28;13.60;;;9.30;;
62535;SDS011;63050;47.514;18.920;2023-02-28T19:23:32;12.20;;;8.90;;
62535;SDS011;63050;47.514;18.920;2023-02-28T19:28:33;11.00;;;8.70;;
62535;SDS011;63050;47.514;18.920;2023-02-28T19:33:37;10.80;;;7.40;;
62535;SDS011;63050;47.514;18.920;2023-02-28T19:38:38;14.00;;;8.90;;
62535;SDS011;63050;47.514;18.920;2023-02-28T19:43:40;26.50;;;12.60;;
62535;SDS011;63050;47.514;18.920;2023-02-28T19:48:43;11.10;;;8.20;;
62535;SDS011;63050;47.514;18.920;2023-02-28T19:53:48;13.60;;;9.20;;
62535;SDS011;63050;47.514;18.920;2023-02-28T19:58:50;13.90;;;9.10;;
62535;SDS011;63050;47.514;18.920;2023-02-28T20:03:53;14.30;;;8.60;;
62535;SDS011;63050;47.514;18.920;2023-02-28T20:08:54;11.40;;;7.60;;
62535;SDS011;63050;47.514;18.920;2023-02-28T20:13:57;11.00;;;8.00;;
62535;SDS011;63050;47.514;18.920;2023-02-28T20:19:00;12.30;;;8.40;;
62535;SDS011;63050;47.514;18.920;2023-02-28T20:24:02;12.80;;;8.90;;
62535;SDS011;63050;47.514;18.920;2023-02-28T20:29:04;14.40;;;7.90;;
62535;SDS011;63050;47.514;18.920;2023-02-28T20:34:07;12.80;;;8.70;;
62535;SDS011;63050;47.514;18.920;2023-02-28T20:39:08;13.10;;;7.90;;
62535;SDS011;63050;47.514;18.920;2023-02-28T20:44:12;11.90;;;8.00;;
62535;SDS011;63050;47.514;18.920;2023-02-28T20:49:14;8.90;;;6.60;;
62535;SDS011;63050;47.514;18.920;2023-02-28T20:54:15;13.60;;;7.90;;
62535;SDS011;63050;47.514;18.920;2023-02-28T20:59:17;11.00;;;7.40;;
62535;SDS011;63050;47.514;18.920;2023-02-28T21:04:20;12.70;;;8.50;;
62535;SDS011;63050;47.514;18.920;2023-02-28T21:09:22;11.90;;;7.20;;
62535;SDS011;63050;47.514;18.920;2023-02-28T21:14:23;11.10;;;7.80;;
62535;SDS011;63050;47.514;18.920;2023-02-28T21:19:25;14.00;;;8.10;;
62535;SDS011;63050;47.514;18.920;2023-02-28T21:24:26;10.90;;;7.30;;
62535;SDS011;63050;47.514;18.920;2023-02-28T21:29:27;15.90;;;9.60;;
62535;SDS011;63050;47.514;18.920;2023-02-28T21:34:28;11.30;;;7.40;;
62535;SDS011;63050;47.514;18.920;2023-02-28T21:39:29;12.40;;;7.90;;
62535;SDS011;63050;47.514;18.920;2023-02-28T21:44:30;14.30;;;9.30;;
62535;SDS011;63050;47.514;18.920;2023-02-28T21:49:33;16.80;;;9.10;;
62535;SDS011;63050;47.514;18.920;2023-02-28T21:54:34;17.40;;;9.60;;
62535;SDS011;63050;47.514;18.920;2023-02-28T21:59:35;15.50;;;10.10;;
62535;SDS011;63050;47.514;18.920;2023-02-28T22:04:37;13.80;;;9.00;;
62535;SDS011;63050;47.514;18.920;2023-02-28T22:09:38;15.40;;;9.40;;
62535;SDS011;63050;47.514;18.920;2023-02-28T22:14:39;18.90;;;10.70;;
62535;SDS011;63050;47.514;18.920;2023-02-28T22:19:41;20.10;;;11.40;;
62535;SDS011;63050;47.514;18.920;2023-02-28T22:24:42;20.20;;;11.90;;
62535;SDS011;63050;47.514;18.920;2023-02-28T22:29:43;19.70;;;12.20;;
62535;SDS011;63050;47.514;18.920;2023-02-28T22:34:44;19.60;;;11.70;;
62535;SDS011;63050;47.514;18.920;2023-02-28T22:39:44;18.70;;;11.20;;
62535;SDS011;63050;47.514;18.920;2023-02-28T22:44:45;18.30;;;11.20;;
62535;SDS011;63050;47.514;18.920;2023-02-28T22:49:47;15.40;;;10.40;;
62535;SDS011;63050;47.514;18.920;2023-02-28T22:54:48;17.50;;;9.20;;
62535;SDS011;63050;47.514;18.920;2023-02-28T22:59:50;15.40;;;9.10;;
62535;SDS011;63050;47.514;18.920;2023-02-28T23:04:53;14.50;;;9.30;;
62535;SDS011;63050;47.514;18.920;2023-02-28T23:09:54;14.20;;;9.30;;
62535;SDS011;63050;47.514;18.920;2023-02-28T23:14:55;13.90;;;8.30;;
62535;SDS011;63050;47.514;18.920;2023-02-28T23:19:56;14.10;;;9.30;;
62535;SDS011;63050;47.514;18.920;2023-02-28T23:24:57;14.60;;;9.20;;
62535;SDS011;63050;47.514;18.920;2023-02-28T23:29:58;14.20;;;10.10;;
62535;SDS011;63050;47.514;18.920;2023-02-28T23:34:59;17.80;;;10.40;;
62535;SDS011;63050;47.514;18.920;2023-02-28T23:40:00;19.90;;;10.90;;
62535;SDS011;63050;47.514;18.920;2023-02-28T23:45:01;14.80;;;10.00;;
62535;SDS011;63050;47.514;18.920;2023-02-28T23:50:03;16.70;;;10.00;;
62535;SDS011;63050;47.514;18.920;2023-02-28T23:55:04;16.00;;;10.10;;
